createdAt,value
2019-02-12T00:00:55.935Z,79.44
2019-02-12T00:03:27.766Z,79.90
2019-02-12T00:05:58.730Z,79.82
2019-02-12T00:08:29.665Z,79.49
2019-02-12T00:11:02.392Z,79.99
2019-02-12T00:13:32.905Z,80.09
2019-02-12T00:16:03.342Z,80.24
2019-02-12T00:18:36.001Z,79.94
2019-02-12T00:21:09.203Z,79.92
2019-02-12T00:23:40.668Z,79.83
2019-02-12T00:26:13.660Z,79.95
2019-02-12T00:28:44.434Z,79.87
2019-02-12T00:31:15.026Z,80.18
2019-02-12T00:33:46.274Z,79.99
2019-02-12T00:36:20.113Z,80.86
2019-02-12T00:38:50.619Z,80.86
2019-02-12T00:41:22.307Z,80.89
2019-02-12T00:43:53.402Z,80.82
2019-02-12T00:46:24.123Z,81.02
2019-02-12T00:48:55.448Z,80.87
2019-02-12T00:51:25.960Z,80.60
2019-02-12T00:53:56.647Z,80.30
2019-02-12T00:56:28.866Z,80.30
2019-02-12T00:58:59.591Z,80.24
2019-02-12T01:01:30.759Z,80.87
2019-02-12T01:04:01.960Z,81.14
2019-02-12T01:06:32.431Z,81.10
2019-02-12T01:09:04.786Z,80.74
2019-02-12T01:11:35.947Z,80.25
2019-02-12T01:14:06.808Z,79.76
2019-02-12T01:16:50.580Z,79.76
2019-02-12T01:19:22.705Z,79.95
2019-02-12T01:21:53.761Z,79.65
2019-02-12T01:24:24.489Z,79.65
2019-02-12T01:26:55.106Z,79.53
2019-02-12T01:29:27.335Z,79.66
2019-02-12T01:31:58.126Z,80.30
2019-02-12T01:34:30.047Z,79.73
2019-02-12T01:37:01.268Z,79.73
2019-02-12T01:39:31.959Z,80.04
2019-02-12T01:42:02.883Z,80.04
2019-02-12T01:44:33.450Z,80.12
2019-02-12T01:47:04.457Z,80.26
2019-02-12T01:49:35.142Z,80.26
2019-02-12T01:52:05.798Z,80.05
2019-02-12T01:54:36.566Z,80.40
2019-02-12T01:57:06.971Z,80.27
2019-02-12T01:59:38.852Z,80.00
2019-02-12T02:02:09.558Z,79.88
2019-02-12T02:04:40.029Z,79.75
2019-02-12T02:07:10.652Z,79.79
2019-02-12T02:09:42.113Z,79.39
2019-02-12T02:12:13.296Z,79.24
2019-02-12T02:14:44.516Z,79.24
2019-02-12T02:17:15.881Z,79.56
2019-02-12T02:19:46.762Z,79.43
2019-02-12T02:22:18.617Z,79.62
2019-02-12T02:24:50.138Z,79.91
2019-02-12T02:27:23.499Z,80.18
2019-02-12T02:29:54.707Z,80.18
2019-02-12T02:32:26.729Z,80.53
2019-02-12T02:34:57.540Z,80.26
2019-02-12T02:37:28.209Z,80.48
2019-02-12T02:39:58.753Z,80.48
2019-02-12T02:42:29.478Z,80.46
2019-02-12T02:45:00.492Z,80.84
2019-02-12T02:47:32.657Z,80.67
2019-02-12T02:50:05.659Z,81.03
2019-02-12T02:52:37.669Z,81.03
2019-02-12T02:55:08.747Z,81.76
2019-02-12T02:57:39.561Z,82.10
2019-02-12T03:00:11.075Z,82.10
2019-02-12T03:02:41.915Z,82.31
2019-02-12T03:05:12.991Z,82.08
2019-02-12T03:07:43.655Z,82.40
2019-02-12T03:10:16.198Z,82.40
2019-02-12T03:12:46.864Z,81.95
2019-02-12T03:15:17.911Z,81.61
2019-02-12T03:17:50.120Z,81.28
2019-02-12T03:20:20.770Z,81.28
2019-02-12T03:22:52.325Z,81.10
2019-02-12T03:25:23.498Z,81.15
2019-02-12T03:27:56.124Z,81.33
2019-02-12T03:30:27.442Z,81.33
2019-02-12T03:32:58.296Z,80.97
2019-02-12T03:35:29.206Z,80.65
2019-02-12T03:37:59.929Z,80.48
2019-02-12T03:40:30.446Z,80.64
2019-02-12T03:43:01.331Z,80.41
2019-02-12T03:45:33.039Z,80.41
2019-02-12T03:48:04.918Z,80.44
2019-02-12T03:50:35.571Z,80.18
2019-02-12T03:53:06.771Z,80.18
2019-02-12T03:55:37.282Z,80.13
2019-02-12T03:58:08.274Z,80.03
2019-02-12T04:00:40.608Z,80.03
2019-02-12T04:03:10.996Z,79.97
2019-02-12T04:05:41.954Z,80.19
2019-02-12T04:08:12.729Z,80.45
2019-02-12T04:10:45.570Z,80.46
2019-02-12T04:13:16.237Z,80.93
2019-02-12T04:15:48.258Z,81.04
2019-02-12T04:18:18.872Z,81.57
2019-02-12T04:20:51.185Z,81.57
2019-02-12T04:23:21.973Z,81.79
2019-02-12T04:25:52.802Z,81.43
2019-02-12T04:28:25.083Z,81.43
2019-02-12T04:30:56.786Z,81.07
2019-02-12T04:33:27.609Z,80.32
2019-02-12T04:35:58.186Z,79.87
2019-02-12T04:38:28.931Z,80.10
2019-02-12T04:41:00.043Z,80.02
2019-02-12T04:43:32.231Z,79.99
2019-02-12T04:46:04.157Z,79.99
2019-02-12T04:48:35.088Z,80.25
2019-02-12T04:51:06.164Z,80.25
2019-02-12T04:53:37.031Z,80.32
2019-02-12T04:56:07.618Z,80.34
2019-02-12T04:58:38.916Z,79.46
2019-02-12T05:01:10.889Z,79.13
2019-02-12T05:03:41.484Z,79.13
2019-02-12T05:06:12.134Z,79.11
2019-02-12T05:09:13.819Z,79.11
2019-02-12T05:11:47.299Z,78.97
2019-02-12T05:14:17.700Z,78.80
2019-02-12T05:16:48.413Z,78.98
2019-02-12T05:19:18.946Z,78.98
2019-02-12T05:21:50.177Z,79.39
2019-02-12T05:24:21.393Z,79.39
2019-02-12T05:26:57.462Z,79.58
2019-02-12T05:29:29.838Z,79.58
2019-02-12T05:32:00.396Z,78.92
2019-02-12T05:34:31.603Z,78.25
2019-02-12T05:37:02.895Z,78.25
2019-02-12T05:39:33.553Z,78.13
2019-02-12T05:42:04.867Z,78.00
2019-02-12T05:44:36.126Z,77.88
2019-02-12T05:47:08.096Z,77.88
2019-02-12T05:49:41.531Z,78.47
2019-02-12T05:52:12.331Z,78.47
2019-02-12T05:54:43.177Z,79.46
2019-02-12T05:57:13.929Z,80.10
2019-02-12T05:59:46.985Z,80.62
2019-02-12T06:02:17.255Z,80.95
2019-02-12T06:04:48.310Z,81.35
2019-02-12T06:07:19.110Z,81.65
2019-02-12T06:09:50.326Z,82.42
2019-02-12T06:12:21.410Z,82.63
2019-02-12T06:14:53.734Z,82.91
2019-02-12T06:17:27.784Z,83.26
2019-02-12T06:19:59.588Z,83.20
2019-02-12T06:22:30.116Z,83.20
2019-02-12T06:25:01.764Z,83.56
2019-02-12T06:27:33.269Z,83.71
2019-02-12T06:30:04.566Z,83.83
2019-02-12T06:32:35.244Z,84.06
2019-02-12T06:35:05.733Z,84.27
2019-02-12T06:37:38.214Z,84.17
2019-02-12T06:40:09.679Z,84.20
2019-02-12T06:42:41.567Z,84.17
2019-02-12T06:45:12.469Z,84.25
2019-02-12T06:47:44.608Z,83.65
2019-02-12T06:50:15.863Z,82.69
2019-02-12T06:52:46.373Z,82.40
2019-02-12T06:55:17.607Z,81.76
2019-02-12T06:57:48.469Z,81.49
2019-02-12T07:00:18.998Z,81.90
2019-02-12T07:03:16.906Z,81.76
2019-02-12T07:06:00.337Z,81.93
2019-02-12T07:08:53.402Z,82.37
2019-02-12T07:11:44.189Z,83.13
2019-02-12T07:14:38.984Z,83.72
2019-02-12T07:17:43.576Z,83.87
2019-02-12T07:20:50.288Z,83.76
2019-02-12T07:24:20.120Z,83.33
2019-02-12T07:27:19.944Z,83.38
2019-02-12T07:30:37.173Z,81.84
2019-02-12T07:33:47.840Z,80.50
2019-02-12T07:36:51.974Z,80.27
2019-02-12T07:40:15.317Z,79.85
2019-02-12T07:43:18.692Z,80.99
2019-02-12T07:46:42.776Z,81.23
2019-02-12T07:49:56.857Z,80.46
2019-02-12T07:52:52.800Z,80.28
2019-02-12T07:56:01.633Z,79.52
2019-02-12T07:59:09.086Z,78.94
2019-02-12T08:02:07.909Z,79.44
2019-02-12T08:05:15.086Z,80.21
2019-02-12T08:08:32.316Z,80.30
2019-02-12T08:11:42.368Z,79.59
2019-02-12T08:14:48.854Z,79.02
2019-02-12T08:17:49.043Z,79.07
2019-02-12T08:21:10.774Z,78.71
2019-02-12T08:24:17.666Z,78.39
2019-02-12T08:27:26.359Z,78.10
2019-02-12T08:30:24.614Z,77.15
2019-02-12T08:33:27.553Z,75.94
2019-02-12T08:36:24.698Z,76.66
2019-02-12T08:39:38.667Z,76.47
2019-02-12T08:43:01.202Z,75.28
2019-02-12T08:46:15.654Z,75.24
2019-02-12T08:49:13.605Z,75.28
2019-02-12T08:52:14.759Z,74.24
2019-02-12T08:55:21.953Z,73.40
2019-02-12T08:58:38.668Z,72.69
2019-02-12T09:01:49.769Z,72.72
2019-02-12T09:04:48.947Z,73.28
2019-02-12T09:07:46.724Z,72.46
2019-02-12T09:10:39.033Z,71.95
2019-02-12T09:13:47.375Z,72.18
2019-02-12T09:16:41.658Z,72.26
2019-02-12T09:19:39.885Z,71.81
2019-02-12T09:22:50.611Z,70.76
2019-02-12T09:25:51.936Z,69.22
2019-02-12T09:28:41.266Z,68.67
2019-02-12T09:31:52.216Z,68.16
2019-02-12T09:34:51.250Z,67.85
2019-02-12T09:37:50.270Z,67.89
2019-02-12T09:40:55.552Z,68.46
2019-02-12T09:44:14.838Z,66.99
2019-02-12T09:47:13.034Z,66.47
2019-02-12T09:50:16.316Z,65.55
2019-02-12T09:53:15.269Z,64.63
2019-02-12T09:56:15.849Z,65.26
2019-02-12T09:59:17.209Z,65.06
2019-02-12T10:02:15.671Z,64.99
2019-02-12T10:05:38.733Z,64.57
2019-02-12T10:08:35.712Z,64.58
2019-02-12T10:11:28.470Z,64.69
2019-02-12T10:14:24.692Z,65.37
2019-02-12T10:17:31.198Z,66.40
2019-02-12T10:20:20.855Z,67.18
2019-02-12T10:23:33.878Z,66.91
2019-02-12T10:26:09.054Z,66.64
2019-02-12T10:29:20.700Z,66.28
2019-02-12T10:31:49.893Z,66.74
2019-02-12T10:34:20.316Z,66.89
2019-02-12T10:36:51.336Z,66.50
2019-02-12T10:39:21.970Z,65.36
2019-02-12T10:41:52.480Z,64.42
2019-02-12T10:44:24.227Z,63.87
2019-02-12T10:46:55.169Z,63.06
2019-02-12T10:49:26.986Z,63.29
2019-02-12T10:51:57.773Z,63.36
2019-02-12T10:54:28.461Z,63.36
2019-02-12T10:56:59.084Z,61.88
2019-02-12T10:59:30.244Z,63.22
2019-02-12T11:02:00.594Z,63.22
2019-02-12T11:04:32.037Z,63.73
2019-02-12T11:07:05.518Z,62.89
2019-02-12T11:09:36.654Z,62.88
2019-02-12T11:12:07.112Z,62.60
2019-02-12T11:14:37.748Z,62.72
2019-02-12T11:17:08.909Z,62.46
2019-02-12T11:19:39.823Z,62.22
2019-02-12T11:22:11.400Z,61.82
2019-02-12T11:24:42.158Z,60.42
2019-02-12T11:27:12.990Z,61.52
2019-02-12T11:29:43.416Z,61.10
2019-02-12T11:32:15.108Z,61.42
2019-02-12T11:34:46.487Z,60.58
2019-02-12T11:37:16.923Z,60.82
2019-02-12T11:39:47.845Z,60.54
2019-02-12T11:42:18.717Z,60.22
2019-02-12T11:44:49.209Z,59.38
2019-02-12T11:47:20.551Z,59.71
2019-02-12T11:49:51.100Z,59.46
2019-02-12T11:52:22.433Z,59.50
2019-02-12T11:54:52.879Z,59.84
2019-02-12T11:57:23.499Z,59.96
2019-02-12T11:59:53.991Z,60.99
2019-02-12T12:02:27.828Z,60.22
2019-02-12T12:04:58.218Z,60.59
2019-02-12T12:07:29.086Z,60.80
2019-02-12T12:10:00.177Z,60.76
2019-02-12T12:12:30.807Z,60.29
2019-02-12T12:15:01.481Z,59.55
2019-02-12T12:17:33.410Z,59.49
2019-02-12T12:20:03.934Z,59.90
2019-02-12T12:22:34.470Z,59.89
2019-02-12T12:25:05.498Z,59.65
2019-02-12T12:27:35.958Z,59.93
2019-02-12T12:30:08.478Z,58.76
2019-02-12T12:32:40.049Z,59.40
2019-02-12T12:35:11.823Z,58.77
2019-02-12T12:37:43.375Z,58.00
2019-02-12T12:40:14.305Z,58.22
2019-02-12T12:42:46.435Z,58.22
2019-02-12T12:45:17.118Z,57.77
2019-02-12T12:47:47.808Z,57.78
2019-02-12T12:50:21.922Z,58.09
2019-02-12T12:52:52.942Z,58.71
2019-02-12T12:55:25.323Z,59.14
2019-02-12T12:57:57.285Z,58.42
2019-02-12T13:00:28.513Z,58.63
2019-02-12T13:02:59.086Z,58.01
2019-02-12T13:05:29.749Z,58.38
2019-02-12T13:08:00.461Z,58.97
2019-02-12T13:10:30.978Z,59.44
2019-02-12T13:13:01.854Z,59.20
2019-02-12T13:15:32.506Z,59.48
2019-02-12T13:18:03.130Z,59.57
2019-02-12T13:20:34.149Z,60.17
2019-02-12T13:23:05.599Z,60.64
2019-02-12T13:25:36.133Z,60.45
2019-02-12T13:28:07.449Z,60.49
2019-02-12T13:30:38.949Z,60.73
2019-02-12T13:33:11.119Z,60.92
2019-02-12T13:35:42.886Z,60.93
2019-02-12T13:38:14.134Z,60.26
2019-02-12T13:40:44.905Z,60.98
2019-02-12T13:43:16.602Z,60.87
2019-02-12T13:45:49.865Z,60.69
2019-02-12T13:48:20.338Z,61.22
2019-02-12T13:50:51.042Z,60.98
2019-02-12T13:53:21.494Z,61.65
2019-02-12T13:55:51.897Z,61.99
2019-02-12T13:58:22.219Z,62.28
2019-02-12T14:00:53.171Z,62.55
2019-02-12T14:03:23.920Z,63.22
2019-02-12T14:05:54.354Z,63.05
2019-02-12T14:08:24.820Z,62.90
2019-02-12T14:10:55.152Z,63.23
2019-02-12T14:13:27.077Z,62.67
2019-02-12T14:15:57.702Z,62.95
2019-02-12T14:18:28.473Z,62.90
2019-02-12T14:20:59.554Z,63.27
2019-02-12T14:23:30.396Z,63.19
2019-02-12T14:26:02.100Z,63.30
2019-02-12T14:28:32.601Z,63.56
2019-02-12T14:31:03.709Z,63.53
2019-02-12T14:33:34.186Z,63.83
2019-02-12T14:36:04.653Z,63.56
2019-02-12T14:38:36.481Z,64.13
2019-02-12T14:41:06.903Z,64.05
2019-02-12T14:43:37.512Z,64.73
2019-02-12T14:46:08.075Z,64.23
2019-02-12T14:48:38.807Z,64.48
2019-02-12T14:51:09.190Z,64.18
2019-02-12T14:53:39.748Z,64.48
2019-02-12T14:56:11.559Z,64.65
2019-02-12T14:58:42.736Z,64.34
2019-02-12T15:01:13.497Z,64.41
2019-02-12T15:03:43.899Z,64.14
2019-02-12T15:06:15.955Z,64.58
2019-02-12T15:08:46.730Z,64.29
2019-02-12T15:11:17.713Z,64.38
2019-02-12T15:13:48.199Z,64.46
2019-02-12T15:16:19.228Z,64.64
2019-02-12T15:18:50.259Z,64.34
2019-02-12T15:21:21.223Z,64.43
2019-02-12T15:23:52.043Z,64.47
2019-02-12T15:26:24.177Z,64.86
2019-02-12T15:28:54.675Z,64.84
2019-02-12T15:31:25.100Z,64.45
2019-02-12T15:33:57.000Z,64.76
2019-02-12T15:36:27.605Z,64.37
2019-02-12T15:38:58.250Z,64.48
2019-02-12T15:41:29.171Z,64.96
2019-02-12T15:43:59.640Z,64.94
2019-02-12T15:46:30.240Z,65.40
2019-02-12T15:49:00.933Z,65.57
2019-02-12T15:51:31.578Z,65.62
2019-02-12T15:54:02.239Z,65.74
2019-02-12T15:56:33.306Z,66.14
2019-02-12T15:59:03.742Z,66.22
2019-02-12T16:01:34.746Z,66.61
2019-02-12T16:04:05.467Z,66.51
2019-02-12T16:06:36.863Z,66.96
2019-02-12T16:09:08.422Z,67.29
2019-02-12T16:11:40.009Z,67.52
2019-02-12T16:14:13.452Z,67.83
2019-02-12T16:16:44.713Z,68.01
2019-02-12T16:19:15.491Z,68.36
2019-02-12T16:21:46.143Z,68.63
2019-02-12T16:24:17.074Z,68.65
2019-02-12T16:26:47.579Z,68.98
2019-02-12T16:29:18.671Z,68.67
2019-02-12T16:31:49.273Z,68.75
2019-02-12T16:34:21.132Z,68.65
2019-02-12T16:36:51.916Z,68.75
2019-02-12T16:39:22.730Z,69.07
2019-02-12T16:41:54.781Z,68.93
2019-02-12T16:44:25.607Z,69.08
2019-02-12T16:46:57.035Z,69.43
2019-02-12T16:49:27.807Z,69.56
2019-02-12T16:52:00.083Z,69.49
2019-02-12T16:54:32.751Z,70.01
2019-02-12T16:57:03.865Z,69.84
2019-02-12T16:59:34.811Z,70.06
2019-02-12T17:02:07.010Z,70.32
2019-02-12T17:04:37.931Z,70.56
2019-02-12T17:07:12.003Z,70.39
2019-02-12T17:09:42.810Z,70.61
2019-02-12T17:12:14.139Z,70.75
2019-02-12T17:14:44.970Z,70.93
2019-02-12T17:17:15.747Z,70.95
2019-02-12T17:19:47.152Z,71.36
2019-02-12T17:22:21.343Z,71.75
2019-02-12T17:24:52.659Z,71.71
2019-02-12T17:27:23.913Z,72.22
2019-02-12T17:29:57.493Z,72.34
2019-02-12T17:32:29.292Z,72.37
2019-02-12T17:35:01.927Z,72.31
2019-02-12T17:37:32.975Z,71.94
2019-02-12T17:40:04.920Z,72.44
2019-02-12T17:42:37.971Z,73.20
2019-02-12T17:45:09.515Z,73.76
2019-02-12T17:47:40.434Z,74.39
2019-02-12T17:50:12.396Z,74.52
2019-02-12T17:52:43.545Z,74.69
2019-02-12T17:55:16.229Z,74.62
2019-02-12T17:57:46.944Z,74.75
2019-02-12T18:00:19.513Z,74.53
2019-02-12T18:02:52.743Z,74.34
2019-02-12T18:05:24.233Z,74.29
2019-02-12T18:07:55.096Z,74.08
2019-02-12T18:10:25.857Z,73.92
2019-02-12T18:12:56.167Z,73.74
2019-02-12T18:15:26.878Z,73.32
2019-02-12T18:17:58.134Z,72.92
2019-02-12T18:20:29.487Z,73.18
2019-02-12T18:23:01.772Z,72.94
2019-02-12T18:25:32.661Z,72.46
2019-02-12T18:28:04.108Z,72.46
2019-02-12T18:30:34.941Z,72.61
2019-02-12T18:33:06.670Z,72.40
2019-02-12T18:35:42.876Z,72.44
2019-02-12T18:38:13.290Z,72.18
2019-02-12T18:40:45.907Z,71.86
2019-02-12T18:43:18.051Z,71.12
2019-02-12T18:45:48.767Z,70.80
2019-02-12T18:48:20.347Z,71.00
2019-02-12T18:50:50.964Z,70.69
2019-02-12T18:53:22.650Z,70.42
2019-02-12T18:55:54.010Z,70.47
2019-02-12T18:58:30.368Z,70.46
2019-02-12T19:01:01.896Z,70.52
2019-02-12T19:03:39.946Z,70.21
2019-02-12T19:06:13.622Z,70.18
2019-02-12T19:08:45.769Z,69.92
2019-02-12T19:11:16.990Z,69.90
2019-02-12T19:13:47.562Z,70.17
2019-02-12T19:16:19.513Z,69.89
2019-02-12T19:18:51.879Z,69.49
2019-02-12T19:21:25.409Z,69.47
2019-02-12T19:23:55.816Z,69.15
2019-02-12T19:26:26.174Z,68.97
2019-02-12T19:28:57.102Z,68.64
2019-02-12T19:31:27.747Z,68.47
2019-02-12T19:33:58.500Z,68.30
2019-02-12T19:36:30.060Z,67.72
2019-02-12T19:39:01.005Z,67.63
2019-02-12T19:41:31.917Z,67.38
2019-02-12T19:44:03.525Z,67.14
2019-02-12T19:46:34.701Z,68.12
2019-02-12T19:49:05.541Z,67.88
2019-02-12T19:51:35.931Z,67.86
2019-02-12T19:54:06.607Z,68.12
2019-02-12T19:56:37.356Z,68.18
2019-02-12T19:59:08.878Z,68.20
2019-02-12T20:01:40.163Z,67.60
2019-02-12T20:04:10.896Z,66.94
2019-02-12T20:06:41.461Z,67.89
2019-02-12T20:09:23.200Z,68.02
2019-02-12T20:11:55.501Z,67.68
2019-02-12T20:14:26.152Z,68.23
2019-02-12T20:16:56.783Z,67.52
2019-02-12T20:19:28.541Z,67.80
2019-02-12T20:21:58.801Z,67.24
2019-02-12T20:24:29.663Z,66.91
2019-02-12T20:27:06.472Z,66.99
2019-02-12T20:29:32.094Z,67.21
2019-02-12T20:32:02.949Z,69.63
2019-02-12T20:34:38.211Z,71.60
2019-02-12T20:37:08.988Z,72.66
2019-02-12T20:39:41.017Z,72.26
2019-02-12T20:42:12.496Z,73.02
2019-02-12T20:44:43.616Z,73.50
2019-02-12T20:47:14.646Z,73.50
2019-02-12T20:49:45.320Z,73.51
2019-02-12T20:52:15.934Z,73.45
2019-02-12T20:54:47.248Z,73.83
2019-02-12T20:57:17.797Z,73.53
2019-02-12T20:59:48.555Z,73.28
2019-02-12T21:02:20.195Z,72.96
2019-02-12T21:04:50.754Z,72.69
2019-02-12T21:07:21.607Z,72.58
2019-02-12T21:09:52.347Z,72.70
2019-02-12T21:12:22.740Z,72.69
2019-02-12T21:14:53.235Z,72.83
2019-02-12T21:17:24.530Z,73.06
2019-02-12T21:19:56.529Z,73.02
2019-02-12T21:22:28.962Z,73.08
2019-02-12T21:25:00.322Z,73.22
2019-02-12T21:27:30.955Z,73.09
2019-02-12T21:30:01.825Z,72.77
2019-02-12T21:32:33.009Z,72.28
2019-02-12T21:37:36.147Z,73.67
2019-02-12T21:40:09.275Z,72.29
2019-02-12T21:42:40.415Z,71.83
2019-02-12T21:45:12.794Z,71.53
2019-02-12T21:47:43.724Z,71.42
2019-02-12T21:50:19.364Z,71.33
2019-02-12T21:52:49.970Z,71.17
2019-02-12T21:55:20.869Z,71.58
2019-02-12T21:57:51.446Z,71.60
2019-02-12T22:00:22.064Z,71.27
2019-02-12T22:02:54.862Z,71.48
2019-02-12T22:05:26.128Z,71.65
2019-02-12T22:07:56.690Z,71.79
2019-02-12T22:10:27.014Z,71.62
2019-02-12T22:12:57.438Z,71.99
2019-02-12T22:15:27.943Z,72.16
2019-02-12T22:17:58.605Z,71.83
2019-02-12T22:20:33.596Z,71.25
2019-02-12T22:23:05.539Z,70.64
2019-02-12T22:28:06.284Z,71.25
2019-02-12T22:30:38.319Z,70.74
2019-02-12T22:33:09.097Z,70.49
2019-02-12T22:35:39.816Z,70.10
2019-02-12T22:38:10.784Z,70.36
2019-02-12T22:40:41.611Z,69.69
2019-02-12T22:43:12.230Z,69.60
2019-02-12T22:45:44.629Z,69.40
2019-02-12T22:48:15.788Z,69.16
2019-02-12T22:50:46.215Z,69.22
2019-02-12T22:53:18.151Z,69.19
2019-02-12T22:55:48.883Z,69.91
2019-02-12T22:58:19.391Z,70.47
2019-02-12T23:01:06.063Z,71.00
2019-02-12T23:03:37.624Z,71.91
2019-02-12T23:06:08.155Z,71.92
2019-02-12T23:08:38.887Z,70.99
2019-02-12T23:11:09.312Z,69.49
2019-02-12T23:13:39.848Z,69.71
2019-02-12T23:16:10.539Z,70.01
2019-02-12T23:18:41.075Z,70.28
2019-02-12T23:21:11.445Z,69.07
2019-02-12T23:23:43.344Z,68.82
2019-02-12T23:26:14.614Z,67.61
2019-02-12T23:28:45.099Z,67.70
2019-02-12T23:31:16.498Z,67.81
2019-02-12T23:33:46.862Z,67.53
2019-02-12T23:36:17.283Z,67.69
2019-02-12T23:38:49.414Z,68.12
2019-02-12T23:41:20.313Z,67.88
2019-02-12T23:43:50.704Z,67.64
2019-02-12T23:46:20.999Z,68.10
2019-02-12T23:48:51.412Z,68.13
2019-02-12T23:51:21.464Z,68.56
2019-02-12T23:53:52.069Z,68.58
2019-02-12T23:56:22.658Z,68.84
2019-02-12T23:58:53.484Z,69.05
